Time,TemperatureF,DewpointF,PressureIn,WindDirection,WindDirectionDegrees,WindSpeedMPH,WindSpeedGustMPH,Humidity,HourlyPrecipIn,Conditions,Clouds,dailyrainin,SoftwareType,DateUTC
2013-05-02 00:04:00,42.0,20.6,30.42,West,273,0.0,4.0,42,0.00,,,0.00,HR-IXPWINDi_r2_v1.2.,2013-05-02 06:04:00,
2013-05-02 00:09:00,41.6,20.8,30.42,West,274,0.0,4.0,43,0.00,,,0.00,HR-IXPWINDi_r2_v1.2.,2013-05-02 06:09:00,
2013-05-02 00:14:00,41.3,20.5,30.43,West,276,2.0,2.0,43,0.00,,,0.00,HR-IXPWINDi_r2_v1.2.,2013-05-02 06:14:00,
2013-05-02 00:20:00,41.3,20.5,30.43,West,274,3.0,3.0,43,0.00,,,0.00,HR-IXPWINDi_r2_v1.2.,2013-05-02 06:20:00,
2013-05-02 00:25:00,40.9,20.1,30.43,West,262,3.0,4.0,43,0.00,,,0.00,HR-IXPWINDi_r2_v1.2.,2013-05-02 06:25:00,
2013-05-02 00:30:00,41.1,16.8,30.44,WNW,290,5.0,9.0,37,0.00,,,0.00,HR-IXPWINDi_r2_v1.2.,2013-05-02 06:30:00,
2013-05-02 00:35:00,42.0,17.0,30.44,West,271,4.0,9.0,36,0.00,,,0.00,HR-IXPWINDi_r2_v1.2.,2013-05-02 06:35:00,
2013-05-02 00:40:00,42.4,16.0,30.44,West,273,6.0,10.0,34,0.00,,,0.00,HR-IXPWINDi_r2_v1.2.,2013-05-02 06:40:00,
2013-05-02 00:45:00,42.8,15.7,30.45,West,280,3.0,10.0,33,0.00,,,0.00,HR-IXPWINDi_r2_v1.2.,2013-05-02 06:45:00,
2013-05-02 00:51:00,42.4,16.0,30.45,WNW,297,5.0,9.0,34,0.00,,,0.00,HR-IXPWINDi_r2_v1.2.,2013-05-02 06:51:00,
2013-05-02 00:56:00,42.3,15.3,30.46,WNW,300,1.0,6.0,33,0.00,,,0.00,HR-IXPWINDi_r2_v1.2.,2013-05-02 06:56:00,
2013-05-02 01:01:00,42.2,15.9,30.46,WSW,238,3.0,6.0,34,0.00,,,0.00,HR-IXPWINDi_r2_v1.2.,2013-05-02 07:01:00,
2013-05-02 01:06:00,41.2,16.9,30.46,WSW,246,3.0,5.0,37,0.00,,,0.00,HR-IXPWINDi_r2_v1.2.,2013-05-02 07:06:00,
2013-05-02 01:11:00,40.7,17.7,30.46,SW,224,3.0,7.0,39,0.00,,,0.00,HR-IXPWINDi_r2_v1.2.,2013-05-02 07:11:00,
2013-05-02 01:16:00,40.3,18.5,30.47,WNW,295,1.0,7.0,41,0.00,,,0.00,HR-IXPWINDi_r2_v1.2.,2013-05-02 07:16:00,
2013-05-02 01:21:00,39.9,17.5,30.47,SW,233,1.0,5.0,40,0.00,,,0.00,HR-IXPWINDi_r2_v1.2.,2013-05-02 07:21:00,
2013-05-02 01:26:00,39.6,17.3,30.47,West,276,0.0,3.0,40,0.00,,,0.00,HR-IXPWINDi_r2_v1.2.,2013-05-02 07:26:00,
2013-05-02 01:32:00,40.1,16.5,30.47,West,273,1.0,4.0,38,0.00,,,0.00,HR-IXPWINDi_r2_v1.2.,2013-05-02 07:32:00,
2013-05-02 01:37:00,40.3,16.1,30.47,WNW,288,6.0,6.0,37,0.00,,,0.00,HR-IXPWINDi_r2_v1.2.,2013-05-02 07:37:00,
2013-05-02 01:42:00,40.6,16.4,30.47,WNW,293,3.0,7.0,37,0.00,,,0.00,HR-IXPWINDi_r2_v1.2.,2013-05-02 07:42:00,
2013-05-02 01:48:00,40.8,15.9,30.47,West,267,3.0,7.0,36,0.00,,,0.00,HR-IXPWINDi_r2_v1.2.,2013-05-02 07:48:00,
2013-05-02 01:53:00,41.0,16.7,30.48,WSW,240,3.0,9.0,37,0.00,,,0.00,HR-IXPWINDi_r2_v1.2.,2013-05-02 07:53:00,
2013-05-02 01:58:00,40.9,16.6,30.48,West,281,5.0,11.0,37,0.00,,,0.00,HR-IXPWINDi_r2_v1.2.,2013-05-02 07:58:00,
2013-05-02 02:03:00,40.5,16.9,30.48,WNW,285,3.0,11.0,38,0.00,,,0.00,HR-IXPWINDi_r2_v1.2.,2013-05-02 08:03:00,
2013-05-02 02:09:00,40.1,17.1,30.48,West,273,3.0,7.0,39,0.00,,,0.00,HR-IXPWINDi_r2_v1.2.,2013-05-02 08:09:00,
2013-05-02 02:14:00,39.8,17.5,30.48,West,278,1.0,6.0,40,0.00,,,0.00,HR-IXPWINDi_r2_v1.2.,2013-05-02 08:14:00,
2013-05-02 02:19:00,39.4,17.1,30.48,WSW,255,0.0,6.0,40,0.00,,,0.00,HR-IXPWINDi_r2_v1.2.,2013-05-02 08:19:00,
2013-05-02 02:24:00,38.9,17.8,30.48,WSW,244,0.0,3.0,42,0.00,,,0.00,HR-IXPWINDi_r2_v1.2.,2013-05-02 08:24:00,
2013-05-02 02:30:00,38.5,18.0,30.48,West,273,1.0,2.0,43,0.00,,,0.00,HR-IXPWINDi_r2_v1.2.,2013-05-02 08:30:00,
2013-05-02 02:35:00,38.5,17.4,30.48,SW,235,4.0,5.0,42,0.00,,,0.00,HR-IXPWINDi_r2_v1.2.,2013-05-02 08:35:00,
2013-05-02 02:40:00,38.5,18.0,30.48,WNW,293,5.0,6.0,43,0.00,,,0.00,HR-IXPWINDi_r2_v1.2.,2013-05-02 08:40:00,
2013-05-02 02:45:00,38.5,18.0,30.48,WNW,282,3.0,6.0,43,0.00,,,0.00,HR-IXPWINDi_r2_v1.2.,2013-05-02 08:45:00,
2013-05-02 02:50:00,38.4,18.4,30.49,WNW,287,2.0,6.0,44,0.00,,,0.00,HR-IXPWINDi_r2_v1.2.,2013-05-02 08:50:00,
2013-05-02 02:55:00,38.4,17.9,30.49,WNW,291,4.0,6.0,43,0.00,,,0.00,HR-IXPWINDi_r2_v1.2.,2013-05-02 08:55:00,
2013-05-02 03:00:00,38.2,17.1,30.49,West,274,1.0,5.0,42,0.00,,,0.00,HR-IXPWINDi_r2_v1.2.,2013-05-02 09:00:00,
2013-05-02 03:06:00,38.0,17.5,30.49,WNW,287,4.0,4.0,43,0.00,,,0.00,HR-IXPWINDi_r2_v1.2.,2013-05-02 09:06:00,
2013-05-02 03:11:00,38.0,17.0,30.49,WSW,257,3.0,4.0,42,0.00,,,0.00,HR-IXPWINDi_r2_v1.2.,2013-05-02 09:11:00,
2013-05-02 03:16:00,37.9,17.4,30.49,West,269,1.0,4.0,43,0.00,,,0.00,HR-IXPWINDi_r2_v1.2.,2013-05-02 09:16:00,
2013-05-02 03:21:00,37.5,17.0,30.50,West,262,0.0,3.0,43,0.00,,,0.00,HR-IXPWINDi_r2_v1.2.,2013-05-02 09:21:00,
2013-05-02 03:26:00,37.2,17.8,30.50,WSW,250,1.0,2.0,45,0.00,,,0.00,HR-IXPWINDi_r2_v1.2.,2013-05-02 09:26:00,
2013-05-02 03:31:00,37.5,17.6,30.50,West,281,2.0,6.0,44,0.00,,,0.00,HR-IXPWINDi_r2_v1.2.,2013-05-02 09:31:00,
2013-05-02 03:37:00,37.7,17.8,30.50,West,262,1.0,6.0,44,0.00,,,0.00,HR-IXPWINDi_r2_v1.2.,2013-05-02 09:37:00,
2013-05-02 03:42:00,38.0,17.0,30.51,WNW,288,4.0,6.0,42,0.00,,,0.00,HR-IXPWINDi_r2_v1.2.,2013-05-02 09:42:00,
2013-05-02 03:47:00,38.2,16.6,30.51,WNW,290,3.0,6.0,41,0.00,,,0.00,HR-IXPWINDi_r2_v1.2.,2013-05-02 09:47:00,
2013-05-02 03:52:00,38.2,16.6,30.51,WNW,295,5.0,5.0,41,0.00,,,0.00,HR-IXPWINDi_r2_v1.2.,2013-05-02 09:52:00,
2013-05-02 03:57:00,38.1,16.5,30.51,West,263,1.0,5.0,41,0.00,,,0.00,HR-IXPWINDi_r2_v1.2.,2013-05-02 09:57:00,
2013-05-02 04:02:00,37.9,16.3,30.52,West,266,1.0,5.0,41,0.00,,,0.00,HR-IXPWINDi_r2_v1.2.,2013-05-02 10:02:00,
2013-05-02 04:08:00,37.5,16.5,30.52,West,263,0.0,3.0,42,0.00,,,0.00,HR-IXPWINDi_r2_v1.2.,2013-05-02 10:08:00,
2013-05-02 04:13:00,36.9,17.0,30.52,NNE,14,0.0,2.0,44,0.00,,,0.00,HR-IXPWINDi_r2_v1.2.,2013-05-02 10:13:00,
2013-05-02 04:18:00,36.3,17.0,30.52,NNE,14,0.0,1.0,45,0.00,,,0.00,HR-IXPWINDi_r2_v1.2.,2013-05-02 10:18:00,
2013-05-02 04:23:00,36.2,16.9,30.52,WNW,291,1.0,1.0,45,0.00,,,0.00,HR-IXPWINDi_r2_v1.2.,2013-05-02 10:23:00,
2013-05-02 04:28:00,36.1,17.8,30.52,WSW,238,0.0,2.0,47,0.00,,,0.00,HR-IXPWINDi_r2_v1.2.,2013-05-02 10:28:00,
2013-05-02 04:33:00,35.9,17.6,30.53,SW,233,0.0,2.0,47,0.00,,,0.00,HR-IXPWINDi_r2_v1.2.,2013-05-02 10:33:00,
2013-05-02 04:38:00,35.5,17.8,30.52,West,267,0.0,2.0,48,0.00,,,0.00,HR-IXPWINDi_r2_v1.2.,2013-05-02 10:38:00,
2013-05-02 04:43:00,35.6,17.9,30.53,NW,311,0.0,2.0,48,0.00,,,0.00,HR-IXPWINDi_r2_v1.2.,2013-05-02 10:43:00,
2013-05-02 04:49:00,35.4,17.7,30.53,NW,309,0.0,2.0,48,0.00,,,0.00,HR-IXPWINDi_r2_v1.2.,2013-05-02 10:49:00,
2013-05-02 04:54:00,35.0,18.2,30.53,NW,309,0.0,1.0,50,0.00,,,0.00,HR-IXPWINDi_r2_v1.2.,2013-05-02 10:54:00,
2013-05-02 04:59:00,35.0,18.2,30.53,West,277,3.0,3.0,50,0.00,,,0.00,HR-IXPWINDi_r2_v1.2.,2013-05-02 10:59:00,
2013-05-02 05:04:00,35.7,18.4,30.53,West,259,1.0,4.0,49,0.00,,,0.00,HR-IXPWINDi_r2_v1.2.,2013-05-02 11:04:00,
2013-05-02 05:09:00,36.1,17.8,30.53,NW,314,1.0,4.0,47,0.00,,,0.00,HR-IXPWINDi_r2_v1.2.,2013-05-02 11:09:00,
2013-05-02 05:14:00,36.1,18.3,30.53,West,277,2.0,2.0,48,0.00,,,0.00,HR-IXPWINDi_r2_v1.2.,2013-05-02 11:14:00,
2013-05-02 05:19:00,36.0,17.7,30.54,WNW,283,4.0,4.0,47,0.00,,,0.00,HR-IXPWINDi_r2_v1.2.,2013-05-02 11:19:00,
2013-05-02 05:25:00,36.3,17.0,30.54,WNW,284,0.0,4.0,45,0.00,,,0.00,HR-IXPWINDi_r2_v1.2.,2013-05-02 11:25:00,
2013-05-02 05:30:00,35.8,18.5,30.54,NNE,23,2.0,4.0,49,0.00,,,0.00,HR-IXPWINDi_r2_v1.2.,2013-05-02 11:30:00,
2013-05-02 05:35:00,35.3,18.1,30.55,North,354,2.0,3.0,49,0.00,,,0.00,HR-IXPWINDi_r2_v1.2.,2013-05-02 11:35:00,
2013-05-02 05:40:00,34.8,19.4,30.55,NE,40,1.0,2.0,53,0.00,,,0.00,HR-IXPWINDi_r2_v1.2.,2013-05-02 11:40:00,
2013-05-02 05:45:00,34.0,19.1,30.55,NE,40,1.0,2.0,54,0.00,,,0.00,HR-IXPWINDi_r2_v1.2.,2013-05-02 11:45:00,
2013-05-02 05:50:00,33.6,19.2,30.55,NE,40,0.0,2.0,55,0.00,,,0.00,HR-IXPWINDi_r2_v1.2.,2013-05-02 11:50:00,
2013-05-02 05:56:00,33.2,20.0,30.56,NE,40,1.0,1.0,58,0.00,,,0.00,HR-IXPWINDi_r2_v1.2.,2013-05-02 11:56:00,
2013-05-02 06:01:00,32.8,19.7,30.56,NE,40,0.0,2.0,58,0.00,,,0.00,HR-IXPWINDi_r2_v1.2.,2013-05-02 12:01:00,
2013-05-02 06:06:00,32.5,19.8,30.57,NE,40,1.0,2.0,59,0.00,,,0.00,HR-IXPWINDi_r2_v1.2.,2013-05-02 12:06:00,
2013-05-02 06:11:00,32.2,19.9,30.57,NE,40,0.0,2.0,60,0.00,,,0.00,HR-IXPWINDi_r2_v1.2.,2013-05-02 12:11:00,
2013-05-02 06:17:00,31.9,20.0,30.57,NNE,23,0.0,2.0,61,0.00,,,0.00,HR-IXPWINDi_r2_v1.2.,2013-05-02 12:17:00,
2013-05-02 06:22:00,32.3,19.6,30.57,SW,233,0.0,2.0,59,0.00,,,0.00,HR-IXPWINDi_r2_v1.2.,2013-05-02 12:22:00,
2013-05-02 06:27:00,32.1,20.2,30.58,East,79,1.0,2.0,61,0.00,,,0.00,HR-IXPWINDi_r2_v1.2.,2013-05-02 12:27:00,
2013-05-02 06:32:00,32.0,20.5,30.58,NE,39,2.0,2.0,62,0.00,,,0.00,HR-IXPWINDi_r2_v1.2.,2013-05-02 12:32:00,
2013-05-02 06:37:00,32.0,21.2,30.58,NE,36,2.0,5.0,64,0.00,,,0.00,HR-IXPWINDi_r2_v1.2.,2013-05-02 12:37:00,
2013-05-02 06:43:00,31.9,21.1,30.58,NE,39,0.0,5.0,64,0.00,,,0.00,HR-IXPWINDi_r2_v1.2.,2013-05-02 12:43:00,
2013-05-02 06:48:00,31.9,20.7,30.59,NE,39,1.0,3.0,63,0.00,,,0.00,HR-IXPWINDi_r2_v1.2.,2013-05-02 12:48:00,
2013-05-02 06:53:00,32.3,21.1,30.59,NE,39,1.0,1.0,63,0.00,,,0.00,HR-IXPWINDi_r2_v1.2.,2013-05-02 12:53:00,
2013-05-02 06:58:00,33.0,21.4,30.59,NE,36,1.0,2.0,62,0.00,,,0.00,HR-IXPWINDi_r2_v1.2.,2013-05-02 12:58:00,
2013-05-02 07:03:00,33.9,19.9,30.59,North,352,1.0,2.0,56,0.00,,,0.00,HR-IXPWINDi_r2_v1.2.,2013-05-02 13:03:00,
2013-05-02 07:08:00,35.0,21.3,30.60,NW,323,1.0,1.0,57,0.00,,,0.00,HR-IXPWINDi_r2_v1.2.,2013-05-02 13:08:00,
2013-05-02 07:14:00,35.7,21.1,30.60,NNW,331,0.0,2.0,55,0.00,,,0.00,HR-IXPWINDi_r2_v1.2.,2013-05-02 13:14:00,
2013-05-02 07:19:00,36.2,19.8,30.60,WNW,283,0.0,2.0,51,0.00,,,0.00,HR-IXPWINDi_r2_v1.2.,2013-05-02 13:19:00,
2013-05-02 07:24:00,36.9,20.0,30.60,West,278,1.0,2.0,50,0.00,,,0.00,HR-IXPWINDi_r2_v1.2.,2013-05-02 13:24:00,
2013-05-02 07:29:00,37.5,20.1,30.60,WSW,255,1.0,2.0,49,0.00,,,0.00,HR-IXPWINDi_r2_v1.2.,2013-05-02 13:29:00,
2013-05-02 07:35:00,38.1,19.7,30.60,WSW,252,1.0,2.0,47,0.00,,,0.00,HR-IXPWINDi_r2_v1.2.,2013-05-02 13:35:00,
2013-05-02 07:40:00,38.8,19.3,30.60,WNW,295,3.0,4.0,45,0.00,,,0.00,HR-IXPWINDi_r2_v1.2.,2013-05-02 13:40:00,
2013-05-02 07:45:00,39.3,19.7,30.60,NW,308,3.0,4.0,45,0.00,,,0.00,HR-IXPWINDi_r2_v1.2.,2013-05-02 13:45:00,
2013-05-02 07:50:00,39.6,19.5,30.60,West,263,2.0,5.0,44,0.00,,,0.00,HR-IXPWINDi_r2_v1.2.,2013-05-02 13:50:00,
2013-05-02 07:55:00,40.1,19.9,30.60,West,269,1.0,5.0,44,0.00,,,0.00,HR-IXPWINDi_r2_v1.2.,2013-05-02 13:55:00,
2013-05-02 08:00:00,40.5,20.3,30.60,West,277,2.0,3.0,44,0.00,,,0.00,HR-IXPWINDi_r2_v1.2.,2013-05-02 14:00:00,
2013-05-02 08:06:00,40.9,20.1,30.60,WNW,284,1.0,3.0,43,0.00,,,0.00,HR-IXPWINDi_r2_v1.2.,2013-05-02 14:06:00,
2013-05-02 08:11:00,41.6,20.8,30.61,WNW,287,0.0,3.0,43,0.00,,,0.00,HR-IXPWINDi_r2_v1.2.,2013-05-02 14:11:00,
2013-05-02 08:16:00,42.2,19.6,30.61,West,277,2.0,2.0,40,0.00,,,0.00,HR-IXPWINDi_r2_v1.2.,2013-05-02 14:16:00,
2013-05-02 08:21:00,42.6,17.5,30.61,West,281,0.0,2.0,36,0.00,,,0.00,HR-IXPWINDi_r2_v1.2.,2013-05-02 14:21:00,
2013-05-02 08:27:00,43.7,17.2,30.61,NNW,336,0.0,2.0,34,0.00,,,0.00,HR-IXPWINDi_r2_v1.2.,2013-05-02 14:27:00,
2013-05-02 08:32:00,43.9,16.7,30.60,SSW,203,0.0,3.0,33,0.00,,,0.00,HR-IXPWINDi_r2_v1.2.,2013-05-02 14:32:00,
2013-05-02 08:37:00,44.8,18.1,30.60,SE,131,1.0,3.0,34,0.00,,,0.00,HR-IXPWINDi_r2_v1.2.,2013-05-02 14:37:00,
2013-05-02 08:42:00,45.9,17.0,30.60,ESE,108,0.0,2.0,31,0.00,,,0.00,HR-IXPWINDi_r2_v1.2.,2013-05-02 14:42:00,
2013-05-02 08:47:00,46.3,16.6,30.60,NE,43,2.0,5.0,30,0.00,,,0.00,HR-IXPWINDi_r2_v1.2.,2013-05-02 14:47:00,
2013-05-02 08:53:00,46.6,16.8,30.60,ESE,110,2.0,5.0,30,0.00,,,0.00,HR-IXPWINDi_r2_v1.2.,2013-05-02 14:53:00,
2013-05-02 08:58:00,46.8,17.0,30.61,ESE,105,1.0,4.0,30,0.00,,,0.00,HR-IXPWINDi_r2_v1.2.,2013-05-02 14:58:00,
2013-05-02 09:03:00,47.3,15.0,30.61,East,82,1.0,4.0,27,0.00,,,0.00,HR-IXPWINDi_r2_v1.2.,2013-05-02 15:03:00,
2013-05-02 09:08:00,47.3,14.2,30.61,East,100,4.0,6.0,26,0.00,,,0.00,HR-IXPWINDi_r2_v1.2.,2013-05-02 15:08:00,
2013-05-02 09:13:00,46.9,14.7,30.61,SE,130,1.0,6.0,27,0.00,,,0.00,HR-IXPWINDi_r2_v1.2.,2013-05-02 15:13:00,
2013-05-02 09:19:00,47.4,14.2,30.60,ENE,68,4.0,6.0,26,0.00,,,0.00,HR-IXPWINDi_r2_v1.2.,2013-05-02 15:19:00,
2013-05-02 09:24:00,47.5,12.5,30.60,SSW,205,3.0,6.0,24,0.00,,,0.00,HR-IXPWINDi_r2_v1.2.,2013-05-02 15:24:00,
2013-05-02 09:29:00,47.2,12.3,30.61,SW,235,1.0,6.0,24,0.00,,,0.00,HR-IXPWINDi_r2_v1.2.,2013-05-02 15:29:00,
2013-05-02 09:34:00,47.7,13.6,30.60,West,274,2.0,6.0,25,0.00,,,0.00,HR-IXPWINDi_r2_v1.2.,2013-05-02 15:34:00,
2013-05-02 09:39:00,47.7,13.6,30.60,SSE,167,0.0,3.0,25,0.00,,,0.00,HR-IXPWINDi_r2_v1.2.,2013-05-02 15:39:00,
2013-05-02 09:44:00,48.8,14.6,30.60,ENE,58,2.0,7.0,25,0.00,,,0.00,HR-IXPWINDi_r2_v1.2.,2013-05-02 15:44:00,
2013-05-02 09:49:00,48.8,14.6,30.60,ESE,108,2.0,7.0,25,0.00,,,0.00,HR-IXPWINDi_r2_v1.2.,2013-05-02 15:49:00,
2013-05-02 09:55:00,48.7,13.5,30.60,ESE,107,4.0,6.0,24,0.00,,,0.00,HR-IXPWINDi_r2_v1.2.,2013-05-02 15:55:00,
2013-05-02 10:00:00,48.7,12.6,30.60,SE,146,1.0,5.0,23,0.00,,,0.00,HR-IXPWINDi_r2_v1.2.,2013-05-02 16:00:00,
2013-05-02 10:05:00,49.1,12.9,30.60,NW,312,1.0,7.0,23,0.00,,,0.00,HR-IXPWINDi_r2_v1.2.,2013-05-02 16:05:00,
2013-05-02 10:10:00,49.7,11.4,30.60,ENE,65,4.0,7.0,21,0.00,,,0.00,HR-IXPWINDi_r2_v1.2.,2013-05-02 16:10:00,
2013-05-02 10:15:00,49.5,12.2,30.60,SE,132,2.0,8.0,22,0.00,,,0.00,HR-IXPWINDi_r2_v1.2.,2013-05-02 16:15:00,
2013-05-02 10:22:00,49.7,12.4,30.60,ESE,117,2.0,9.0,22,0.00,,,0.00,HR-IXPWINDi_r2_v1.2.,2013-05-02 16:22:00,
2013-05-02 10:27:00,49.8,12.5,30.60,SSE,152,1.0,9.0,22,0.00,,,0.00,HR-IXPWINDi_r2_v1.2.,2013-05-02 16:27:00,
2013-05-02 10:32:00,50.6,12.1,30.60,WSW,250,1.0,5.0,21,0.00,,,0.00,HR-IXPWINDi_r2_v1.2.,2013-05-02 16:32:00,
2013-05-02 10:37:00,51.2,12.6,30.60,ENE,67,3.0,5.0,21,0.00,,,0.00,HR-IXPWINDi_r2_v1.2.,2013-05-02 16:37:00,
2013-05-02 10:43:00,51.8,12.0,30.60,North,8,2.0,5.0,20,0.00,,,0.00,HR-IXPWINDi_r2_v1.2.,2013-05-02 16:43:00,
2013-05-02 10:48:00,51.7,10.8,30.59,SW,235,3.0,5.0,19,0.00,,,0.00,HR-IXPWINDi_r2_v1.2.,2013-05-02 16:48:00,
2013-05-02 10:53:00,51.1,11.4,30.59,SW,215,2.0,8.0,20,0.00,,,0.00,HR-IXPWINDi_r2_v1.2.,2013-05-02 16:53:00,
2013-05-02 10:58:00,51.6,11.9,30.59,SW,214,6.0,9.0,20,0.00,,,0.00,HR-IXPWINDi_r2_v1.2.,2013-05-02 16:58:00,
2013-05-02 11:03:00,51.4,10.5,30.59,South,170,3.0,9.0,19,0.00,,,0.00,HR-IXPWINDi_r2_v1.2.,2013-05-02 17:03:00,
2013-05-02 11:08:00,51.6,11.9,30.59,SSW,198,3.0,9.0,20,0.00,,,0.00,HR-IXPWINDi_r2_v1.2.,2013-05-02 17:08:00,
2013-05-02 11:14:00,51.7,11.9,30.59,SSW,205,6.0,10.0,20,0.00,,,0.00,HR-IXPWINDi_r2_v1.2.,2013-05-02 17:14:00,
2013-05-02 11:19:00,52.1,11.1,30.59,SW,221,6.0,10.0,19,0.00,,,0.00,HR-IXPWINDi_r2_v1.2.,2013-05-02 17:19:00,
2013-05-02 11:24:00,52.2,12.4,30.59,SW,214,3.0,9.0,20,0.00,,,0.00,HR-IXPWINDi_r2_v1.2.,2013-05-02 17:24:00,
2013-05-02 11:29:00,52.4,11.4,30.59,WNW,285,3.0,9.0,19,0.00,,,0.00,HR-IXPWINDi_r2_v1.2.,2013-05-02 17:29:00,
2013-05-02 11:34:00,51.8,14.2,30.59,East,84,2.0,7.0,22,0.00,,,0.00,HR-IXPWINDi_r2_v1.2.,2013-05-02 17:34:00,
2013-05-02 11:39:00,52.1,12.3,30.59,East,89,5.0,9.0,20,0.00,,,0.00,HR-IXPWINDi_r2_v1.2.,2013-05-02 17:39:00,
2013-05-02 11:45:00,52.5,11.5,30.58,East,84,3.0,9.0,19,0.00,,,0.00,HR-IXPWINDi_r2_v1.2.,2013-05-02 17:45:00,
2013-05-02 11:50:00,52.2,10.0,30.58,East,98,0.0,7.0,18,0.00,,,0.00,HR-IXPWINDi_r2_v1.2.,2013-05-02 17:50:00,
2013-05-02 11:55:00,52.9,11.8,30.58,North,4,3.0,6.0,19,0.00,,,0.00,HR-IXPWINDi_r2_v1.2.,2013-05-02 17:55:00,
2013-05-02 12:00:00,53.5,12.3,30.57,SSE,166,3.0,6.0,19,0.00,,,0.00,HR-IXPWINDi_r2_v1.2.,2013-05-02 18:00:00,
2013-05-02 12:06:00,53.7,12.4,30.57,ESE,121,2.0,10.0,19,0.00,,,0.00,HR-IXPWINDi_r2_v1.2.,2013-05-02 18:06:00,
2013-05-02 12:11:00,53.9,11.4,30.57,North,8,5.0,10.0,18,0.00,,,0.00,HR-IXPWINDi_r2_v1.2.,2013-05-02 18:11:00,
2013-05-02 12:16:00,54.0,12.7,30.57,ESE,103,4.0,11.0,19,0.00,,,0.00,HR-IXPWINDi_r2_v1.2.,2013-05-02 18:16:00,
2013-05-02 12:21:00,54.7,12.0,30.56,SW,224,6.0,11.0,18,0.00,,,0.00,HR-IXPWINDi_r2_v1.2.,2013-05-02 18:21:00,
2013-05-02 12:26:00,55.4,11.3,30.56,SSW,201,7.0,13.0,17,0.00,,,0.00,HR-IXPWINDi_r2_v1.2.,2013-05-02 18:26:00,
2013-05-02 12:31:00,54.6,10.7,30.56,SSW,207,9.0,13.0,17,0.00,,,0.00,HR-IXPWINDi_r2_v1.2.,2013-05-02 18:31:00,
2013-05-02 12:36:00,54.3,10.4,30.55,WNW,294,1.0,11.0,17,0.00,,,0.00,HR-IXPWINDi_r2_v1.2.,2013-05-02 18:36:00,
2013-05-02 12:42:00,55.3,12.5,30.55,WNW,284,4.0,10.0,18,0.00,,,0.00,HR-IXPWINDi_r2_v1.2.,2013-05-02 18:42:00,
2013-05-02 12:47:00,55.3,9.9,30.55,SSW,208,6.0,10.0,16,0.00,,,0.00,HR-IXPWINDi_r2_v1.2.,2013-05-02 18:47:00,
2013-05-02 12:53:00,55.8,11.7,30.55,WSW,238,3.0,10.0,17,0.00,,,0.00,HR-IXPWINDi_r2_v1.2.,2013-05-02 18:53:00,
2013-05-02 12:58:00,56.0,11.8,30.54,WSW,238,3.0,8.0,17,0.00,,,0.00,HR-IXPWINDi_r2_v1.2.,2013-05-02 18:58:00,
2013-05-02 13:03:00,56.1,10.5,30.54,SW,228,3.0,10.0,16,0.00,,,0.00,HR-IXPWINDi_r2_v1.2.,2013-05-02 19:03:00,
2013-05-02 13:08:00,55.6,10.1,30.54,SW,219,4.0,10.0,16,0.00,,,0.00,HR-IXPWINDi_r2_v1.2.,2013-05-02 19:08:00,
2013-05-02 13:14:00,55.5,10.1,30.54,SSW,212,3.0,9.0,16,0.00,,,0.00,HR-IXPWINDi_r2_v1.2.,2013-05-02 19:14:00,
2013-05-02 13:19:00,56.2,10.6,30.54,SW,214,6.0,9.0,16,0.00,,,0.00,HR-IXPWINDi_r2_v1.2.,2013-05-02 19:19:00,
2013-05-02 13:24:00,56.6,9.5,30.53,West,278,3.0,8.0,15,0.00,,,0.00,HR-IXPWINDi_r2_v1.2.,2013-05-02 19:24:00,
2013-05-02 13:29:00,56.4,9.4,30.53,WSW,238,7.0,11.0,15,0.00,,,0.00,HR-IXPWINDi_r2_v1.2.,2013-05-02 19:29:00,
2013-05-02 13:35:00,56.1,9.1,30.52,WSW,238,2.0,11.0,15,0.00,,,0.00,HR-IXPWINDi_r2_v1.2.,2013-05-02 19:35:00,
2013-05-02 13:40:00,56.7,9.6,30.52,SW,235,3.0,10.0,15,0.00,,,0.00,HR-IXPWINDi_r2_v1.2.,2013-05-02 19:40:00,
2013-05-02 13:45:00,57.1,9.9,30.52,SSW,210,4.0,10.0,15,0.00,,,0.00,HR-IXPWINDi_r2_v1.2.,2013-05-02 19:45:00,
2013-05-02 13:50:00,56.9,9.8,30.52,SW,232,1.0,10.0,15,0.00,,,0.00,HR-IXPWINDi_r2_v1.2.,2013-05-02 19:50:00,
2013-05-02 13:55:00,57.1,8.4,30.52,WNW,284,6.0,10.0,14,0.00,,,0.00,HR-IXPWINDi_r2_v1.2.,2013-05-02 19:55:00,
2013-05-02 14:00:00,56.8,9.7,30.51,West,262,5.0,12.0,15,0.00,,,0.00,HR-IXPWINDi_r2_v1.2.,2013-05-02 20:00:00,
2013-05-02 14:05:00,56.1,9.1,30.51,West,276,4.0,12.0,15,0.00,,,0.00,HR-IXPWINDi_r2_v1.2.,2013-05-02 20:05:00,
2013-05-02 14:10:00,55.7,10.2,30.51,NNE,32,1.0,9.0,16,0.00,,,0.00,HR-IXPWINDi_r2_v1.2.,2013-05-02 20:10:00,
2013-05-02 14:16:00,57.0,9.8,30.51,NW,311,3.0,8.0,15,0.00,,,0.00,HR-IXPWINDi_r2_v1.2.,2013-05-02 20:16:00,
2013-05-02 14:21:00,57.5,8.7,30.50,SE,141,3.0,8.0,14,0.00,,,0.00,HR-IXPWINDi_r2_v1.2.,2013-05-02 20:21:00,
2013-05-02 14:26:00,58.5,9.5,30.50,East,82,3.0,6.0,14,0.00,,,0.00,HR-IXPWINDi_r2_v1.2.,2013-05-02 20:26:00,
2013-05-02 14:31:00,57.5,10.2,30.50,ESE,104,2.0,10.0,15,0.00,,,0.00,HR-IXPWINDi_r2_v1.2.,2013-05-02 20:31:00,
2013-05-02 14:37:00,57.9,9.0,30.50,NE,55,5.0,10.0,14,0.00,,,0.00,HR-IXPWINDi_r2_v1.2.,2013-05-02 20:37:00,
2013-05-02 14:42:00,58.4,9.4,30.50,North,354,2.0,6.0,14,0.00,,,0.00,HR-IXPWINDi_r2_v1.2.,2013-05-02 20:42:00,
2013-05-02 14:47:00,58.1,7.5,30.49,NNE,28,4.0,8.0,13,0.00,,,0.00,HR-IXPWINDi_r2_v1.2.,2013-05-02 20:47:00,
2013-05-02 14:53:00,57.9,12.0,30.49,SE,134,5.0,11.0,16,0.00,,,0.00,HR-IXPWINDi_r2_v1.2.,2013-05-02 20:53:00,
2013-05-02 14:58:00,58.6,9.6,30.48,NE,36,7.0,11.0,14,0.00,,,0.00,HR-IXPWINDi_r2_v1.2.,2013-05-02 20:58:00,
2013-05-02 15:03:00,58.5,9.5,30.48,SSE,155,5.0,9.0,14,0.00,,,0.00,HR-IXPWINDi_r2_v1.2.,2013-05-02 21:03:00,
2013-05-02 15:08:00,59.6,8.7,30.48,WNW,290,2.0,10.0,13,0.00,,,0.00,HR-IXPWINDi_r2_v1.2.,2013-05-02 21:08:00,
2013-05-02 15:14:00,60.4,7.6,30.48,SSE,152,5.0,10.0,12,0.00,,,0.00,HR-IXPWINDi_r2_v1.2.,2013-05-02 21:14:00,
2013-05-02 15:19:00,60.4,7.6,30.48,SE,136,1.0,7.0,12,0.00,,,0.00,HR-IXPWINDi_r2_v1.2.,2013-05-02 21:19:00,
2013-05-02 15:24:00,60.6,5.8,30.48,SSE,148,3.0,8.0,11,0.00,,,0.00,HR-IXPWINDi_r2_v1.2.,2013-05-02 21:24:00,
2013-05-02 15:29:00,60.5,7.7,30.47,East,98,0.0,9.0,12,0.00,,,0.00,HR-IXPWINDi_r2_v1.2.,2013-05-02 21:29:00,
2013-05-02 15:34:00,60.7,11.3,30.47,WNW,302,7.0,20.0,14,0.00,,,0.00,HR-IXPWINDi_r2_v1.2.,2013-05-02 21:34:00,
2013-05-02 15:40:00,60.0,7.3,30.47,West,268,5.0,20.0,12,0.00,,,0.00,HR-IXPWINDi_r2_v1.2.,2013-05-02 21:40:00,
2013-05-02 15:45:00,60.2,7.4,30.46,North,11,5.0,10.0,12,0.00,,,0.00,HR-IXPWINDi_r2_v1.2.,2013-05-02 21:45:00,
2013-05-02 15:50:00,59.6,7.0,30.46,WSW,253,1.0,8.0,12,0.00,,,0.00,HR-IXPWINDi_r2_v1.2.,2013-05-02 21:50:00,
2013-05-02 15:55:00,60.3,7.5,30.45,WNW,284,8.0,13.0,12,0.00,,,0.00,HR-IXPWINDi_r2_v1.2.,2013-05-02 21:55:00,
2013-05-02 16:01:00,60.1,7.4,30.45,SW,229,3.0,13.0,12,0.00,,,0.00,HR-IXPWINDi_r2_v1.2.,2013-05-02 22:01:00,
2013-05-02 16:06:00,61.3,6.4,30.45,SSW,211,3.0,11.0,11,0.00,,,0.00,HR-IXPWINDi_r2_v1.2.,2013-05-02 22:06:00,
2013-05-02 16:11:00,61.8,6.8,30.44,East,94,2.0,5.0,11,0.00,,,0.00,HR-IXPWINDi_r2_v1.2.,2013-05-02 22:11:00,
2013-05-02 16:16:00,62.2,7.1,30.44,WSW,250,4.0,10.0,11,0.00,,,0.00,HR-IXPWINDi_r2_v1.2.,2013-05-02 22:16:00,
2013-05-02 16:21:00,61.7,6.7,30.44,SW,229,7.0,10.0,11,0.00,,,0.00,HR-IXPWINDi_r2_v1.2.,2013-05-02 22:21:00,
2013-05-02 16:26:00,61.3,6.4,30.43,SSE,152,4.0,9.0,11,0.00,,,0.00,HR-IXPWINDi_r2_v1.2.,2013-05-02 22:26:00,
2013-05-02 16:31:00,62.0,6.9,30.43,SE,136,6.0,9.0,11,0.00,,,0.00,HR-IXPWINDi_r2_v1.2.,2013-05-02 22:31:00,
2013-05-02 16:37:00,61.6,6.6,30.43,SSE,155,5.0,11.0,11,0.00,,,0.00,HR-IXPWINDi_r2_v1.2.,2013-05-02 22:37:00,
2013-05-02 16:42:00,61.8,4.7,30.43,ESE,118,3.0,11.0,10,0.00,,,0.00,HR-IXPWINDi_r2_v1.2.,2013-05-02 22:42:00,
2013-05-02 16:47:00,62.2,7.1,30.42,SSE,160,3.0,7.0,11,0.00,,,0.00,HR-IXPWINDi_r2_v1.2.,2013-05-02 22:47:00,
2013-05-02 16:52:00,62.4,7.2,30.42,East,92,2.0,7.0,11,0.00,,,0.00,HR-IXPWINDi_r2_v1.2.,2013-05-02 22:52:00,
2013-05-02 16:57:00,62.1,7.0,30.42,WSW,253,4.0,10.0,11,0.00,,,0.00,HR-IXPWINDi_r2_v1.2.,2013-05-02 22:57:00,
2013-05-02 17:02:00,62.8,7.5,30.41,SW,219,1.0,10.0,11,0.00,,,0.00,HR-IXPWINDi_r2_v1.2.,2013-05-02 23:02:00,
2013-05-02 17:08:00,63.0,7.7,30.41,SW,224,4.0,7.0,11,0.00,,,0.00,HR-IXPWINDi_r2_v1.2.,2013-05-02 23:08:00,
2013-05-02 17:13:00,62.6,7.4,30.41,SSE,152,2.0,7.0,11,0.00,,,0.00,HR-IXPWINDi_r2_v1.2.,2013-05-02 23:13:00,
2013-05-02 17:18:00,62.9,5.5,30.41,SSE,152,3.0,7.0,10,0.00,,,0.00,HR-IXPWINDi_r2_v1.2.,2013-05-02 23:18:00,
2013-05-02 17:23:00,63.3,5.8,30.41,SSW,203,3.0,8.0,10,0.00,,,0.00,HR-IXPWINDi_r2_v1.2.,2013-05-02 23:23:00,
2013-05-02 17:28:00,63.1,5.7,30.40,SE,128,4.0,10.0,10,0.00,,,0.00,HR-IXPWINDi_r2_v1.2.,2013-05-02 23:28:00,
2013-05-02 17:33:00,62.6,7.4,30.40,SE,127,2.0,10.0,11,0.00,,,0.00,HR-IXPWINDi_r2_v1.2.,2013-05-02 23:33:00,
2013-05-02 17:39:00,62.8,5.5,30.40,SW,221,4.0,9.0,10,0.00,,,0.00,HR-IXPWINDi_r2_v1.2.,2013-05-02 23:39:00,
2013-05-02 17:44:00,63.2,5.8,30.40,SSW,197,3.0,9.0,10,0.00,,,0.00,HR-IXPWINDi_r2_v1.2.,2013-05-02 23:44:00,
2013-05-02 17:49:00,63.5,6.0,30.40,South,186,4.0,9.0,10,0.00,,,0.00,HR-IXPWINDi_r2_v1.2.,2013-05-02 23:49:00,
2013-05-02 17:54:00,63.7,6.2,30.40,SW,231,4.0,6.0,10,0.00,,,0.00,HR-IXPWINDi_r2_v1.2.,2013-05-02 23:54:00,
2013-05-02 17:59:00,64.0,6.4,30.40,SE,124,1.0,6.0,10,0.00,,,0.00,HR-IXPWINDi_r2_v1.2.,2013-05-02 23:59:00,
2013-05-02 18:05:00,64.3,4.3,30.40,SSW,212,5.0,6.0,9,0.00,,,0.00,HR-IXPWINDi_r2_v1.2.,2013-05-03 00:05:00,
2013-05-02 18:10:00,63.7,3.9,30.40,SE,127,1.0,6.0,9,0.00,,,0.00,HR-IXPWINDi_r2_v1.2.,2013-05-03 00:10:00,
2013-05-02 18:15:00,63.1,5.7,30.39,NE,55,2.0,6.0,10,0.00,,,0.00,HR-IXPWINDi_r2_v1.2.,2013-05-03 00:15:00,
2013-05-02 18:20:00,62.7,5.4,30.39,East,99,1.0,6.0,10,0.00,,,0.00,HR-IXPWINDi_r2_v1.2.,2013-05-03 00:20:00,
2013-05-02 18:26:00,62.8,3.2,30.39,South,188,0.0,6.0,9,0.00,,,0.00,HR-IXPWINDi_r2_v1.2.,2013-05-03 00:26:00,
2013-05-02 18:31:00,63.3,3.6,30.39,SSW,192,4.0,6.0,9,0.00,,,0.00,HR-IXPWINDi_r2_v1.2.,2013-05-03 00:31:00,
2013-05-02 18:36:00,63.8,3.9,30.39,SSW,194,2.0,6.0,9,0.00,,,0.00,HR-IXPWINDi_r2_v1.2.,2013-05-03 00:36:00,
2013-05-02 18:41:00,63.8,3.9,30.39,SW,235,0.0,6.0,9,0.00,,,0.00,HR-IXPWINDi_r2_v1.2.,2013-05-03 00:41:00,
2013-05-02 18:47:00,64.5,1.9,30.39,ESE,120,1.0,3.0,8,0.00,,,0.00,HR-IXPWINDi_r2_v1.2.,2013-05-03 00:47:00,
2013-05-02 18:52:00,64.7,2.1,30.39,SW,235,1.0,2.0,8,0.00,,,0.00,HR-IXPWINDi_r2_v1.2.,2013-05-03 00:52:00,
2013-05-02 18:57:00,64.2,1.7,30.39,WNW,288,4.0,4.0,8,0.00,,,0.00,HR-IXPWINDi_r2_v1.2.,2013-05-03 00:57:00,
2013-05-02 19:02:00,63.4,3.6,30.38,North,356,1.0,4.0,9,0.00,,,0.00,HR-IXPWINDi_r2_v1.2.,2013-05-03 01:02:00,
2013-05-02 19:07:00,62.8,3.2,30.38,NE,41,1.0,4.0,9,0.00,,,0.00,HR-IXPWINDi_r2_v1.2.,2013-05-03 01:07:00,
2013-05-02 19:12:00,62.6,3.0,30.38,WSW,239,3.0,4.0,9,0.00,,,0.00,HR-IXPWINDi_r2_v1.2.,2013-05-03 01:12:00,
2013-05-02 19:17:00,62.4,2.9,30.38,SW,219,0.0,4.0,9,0.00,,,0.00,HR-IXPWINDi_r2_v1.2.,2013-05-03 01:17:00,
2013-05-02 19:23:00,63.0,3.3,30.38,SW,235,0.0,4.0,9,0.00,,,0.00,HR-IXPWINDi_r2_v1.2.,2013-05-03 01:23:00,
2013-05-02 19:28:00,63.0,3.3,30.38,WNW,294,1.0,2.0,9,0.00,,,0.00,HR-IXPWINDi_r2_v1.2.,2013-05-03 01:28:00,
2013-05-02 19:33:00,62.8,3.2,30.38,ESE,110,1.0,2.0,9,0.00,,,0.00,HR-IXPWINDi_r2_v1.2.,2013-05-03 01:33:00,
2013-05-02 19:38:00,62.0,2.6,30.38,East,101,1.0,2.0,9,0.00,,,0.00,HR-IXPWINDi_r2_v1.2.,2013-05-03 01:38:00,
2013-05-02 19:44:00,61.7,4.6,30.38,ESE,112,2.0,2.0,10,0.00,,,0.00,HR-IXPWINDi_r2_v1.2.,2013-05-03 01:44:00,
2013-05-02 19:49:00,61.3,8.3,30.38,East,82,2.0,2.0,12,0.00,,,0.00,HR-IXPWINDi_r2_v1.2.,2013-05-03 01:49:00,
2013-05-02 19:54:00,60.7,7.8,30.38,ESE,108,2.0,3.0,12,0.00,,,0.00,HR-IXPWINDi_r2_v1.2.,2013-05-03 01:54:00,
2013-05-02 19:59:00,60.1,7.4,30.38,East,98,1.0,3.0,12,0.00,,,0.00,HR-IXPWINDi_r2_v1.2.,2013-05-03 01:59:00,
2013-05-02 20:05:00,59.3,10.1,30.38,East,101,1.0,3.0,14,0.00,,,0.00,HR-IXPWINDi_r2_v1.2.,2013-05-03 02:05:00,
2013-05-02 20:10:00,58.4,9.4,30.38,ESE,108,1.0,3.0,14,0.00,,,0.00,HR-IXPWINDi_r2_v1.2.,2013-05-03 02:10:00,
2013-05-02 20:15:00,57.8,10.5,30.38,East,84,1.0,3.0,15,0.00,,,0.00,HR-IXPWINDi_r2_v1.2.,2013-05-03 02:15:00,
2013-05-02 20:20:00,57.0,11.3,30.38,East,82,1.0,2.0,16,0.00,,,0.00,HR-IXPWINDi_r2_v1.2.,2013-05-03 02:20:00,
2013-05-02 20:25:00,56.6,12.3,30.38,ESE,108,1.0,2.0,17,0.00,,,0.00,HR-IXPWINDi_r2_v1.2.,2013-05-03 02:25:00,
2013-05-02 20:30:00,56.2,12.0,30.38,ESE,102,1.0,2.0,17,0.00,,,0.00,HR-IXPWINDi_r2_v1.2.,2013-05-03 02:30:00,
2013-05-02 20:36:00,55.7,14.1,30.38,ESE,102,0.0,2.0,19,0.00,,,0.00,HR-IXPWINDi_r2_v1.2.,2013-05-03 02:36:00,
2013-05-02 20:41:00,55.0,13.5,30.38,East,101,0.0,1.0,19,0.00,,,0.00,HR-IXPWINDi_r2_v1.2.,2013-05-03 02:41:00,
2013-05-02 20:46:00,54.2,16.2,30.38,East,101,1.0,1.0,22,0.00,,,0.00,HR-IXPWINDi_r2_v1.2.,2013-05-03 02:46:00,
2013-05-02 20:51:00,53.5,16.6,30.38,NE,45,1.0,2.0,23,0.00,,,0.00,HR-IXPWINDi_r2_v1.2.,2013-05-03 02:51:00,
2013-05-02 20:57:00,53.1,18.2,30.38,NNE,13,1.0,3.0,25,0.00,,,0.00,HR-IXPWINDi_r2_v1.2.,2013-05-03 02:57:00,
2013-05-02 21:02:00,52.8,18.0,30.39,NNE,25,4.0,5.0,25,0.00,,,0.00,HR-IXPWINDi_r2_v1.2.,2013-05-03 03:02:00,
2013-05-02 21:07:00,52.2,19.2,30.39,NE,49,2.0,5.0,27,0.00,,,0.00,HR-IXPWINDi_r2_v1.2.,2013-05-03 03:07:00,
2013-05-02 21:12:00,51.8,18.9,30.39,ENE,74,1.0,5.0,27,0.00,,,0.00,HR-IXPWINDi_r2_v1.2.,2013-05-03 03:12:00,
2013-05-02 21:17:00,51.5,17.8,30.39,ENE,74,0.0,2.0,26,0.00,,,0.00,HR-IXPWINDi_r2_v1.2.,2013-05-03 03:17:00,
2013-05-02 21:23:00,51.0,18.2,30.39,ENE,74,0.0,1.0,27,0.00,,,0.00,HR-IXPWINDi_r2_v1.2.,2013-05-03 03:23:00,
2013-05-02 21:28:00,50.8,17.2,30.39,ENE,74,0.0,1.0,26,0.00,,,0.00,HR-IXPWINDi_r2_v1.2.,2013-05-03 03:28:00,
2013-05-02 21:33:00,50.0,15.6,30.39,ENE,74,0.0,1.0,25,0.00,,,0.00,HR-IXPWINDi_r2_v1.2.,2013-05-03 03:33:00,
2013-05-02 21:38:00,49.5,15.1,30.39,ESE,115,2.0,2.0,25,0.00,,,0.00,HR-IXPWINDi_r2_v1.2.,2013-05-03 03:38:00,
2013-05-02 21:44:00,49.6,15.2,30.39,SSW,202,1.0,3.0,25,0.00,,,0.00,HR-IXPWINDi_r2_v1.2.,2013-05-03 03:44:00,
2013-05-02 21:49:00,49.5,14.2,30.39,SSE,160,2.0,3.0,24,0.00,,,0.00,HR-IXPWINDi_r2_v1.2.,2013-05-03 03:49:00,
2013-05-02 21:54:00,49.5,15.1,30.39,SSE,149,2.0,3.0,25,0.00,,,0.00,HR-IXPWINDi_r2_v1.2.,2013-05-03 03:54:00,
2013-05-02 21:59:00,49.5,15.1,30.39,SSE,147,1.0,3.0,25,0.00,,,0.00,HR-IXPWINDi_r2_v1.2.,2013-05-03 03:59:00,
2013-05-02 22:01:00,49.5,15.1,30.39,SE,146,0.0,3.0,25,0.00,,,0.00,HR-IXPWINDi_r2_v1.2.,2013-05-03 04:01:00,
2013-05-02 22:06:00,49.4,16.0,30.39,SSE,147,0.0,2.0,26,0.00,,,0.00,HR-IXPWINDi_r2_v1.2.,2013-05-03 04:06:00,
2013-05-02 22:11:00,49.0,16.5,30.39,ESE,113,1.0,2.0,27,0.00,,,0.00,HR-IXPWINDi_r2_v1.2.,2013-05-03 04:11:00,
2013-05-02 22:16:00,48.6,16.1,30.39,ESE,113,0.0,2.0,27,0.00,,,0.00,HR-IXPWINDi_r2_v1.2.,2013-05-03 04:16:00,
2013-05-02 22:21:00,48.2,16.6,30.39,ESE,113,0.0,2.0,28,0.00,,,0.00,HR-IXPWINDi_r2_v1.2.,2013-05-03 04:21:00,
2013-05-02 22:26:00,47.8,17.1,30.39,West,262,0.0,1.0,29,0.00,,,0.00,HR-IXPWINDi_r2_v1.2.,2013-05-03 04:26:00,
2013-05-02 22:31:00,47.3,17.4,30.39,West,262,1.0,1.0,30,0.00,,,0.00,HR-IXPWINDi_r2_v1.2.,2013-05-03 04:31:00,
2013-05-02 22:37:00,46.9,17.8,30.38,North,349,1.0,1.0,31,0.00,,,0.00,HR-IXPWINDi_r2_v1.2.,2013-05-03 04:37:00,
2013-05-02 22:42:00,46.7,18.4,30.38,North,350,0.0,1.0,32,0.00,,,0.00,HR-IXPWINDi_r2_v1.2.,2013-05-03 04:42:00,
2013-05-02 22:47:00,46.3,20.1,30.38,North,349,0.0,1.0,35,0.00,,,0.00,HR-IXPWINDi_r2_v1.2.,2013-05-03 04:47:00,
2013-05-02 22:52:00,46.1,20.6,30.38,West,264,1.0,2.0,36,0.00,,,0.00,HR-IXPWINDi_r2_v1.2.,2013-05-03 04:52:00,
2013-05-02 22:57:00,46.0,20.5,30.38,West,275,0.0,2.0,36,0.00,,,0.00,HR-IXPWINDi_r2_v1.2.,2013-05-03 04:57:00,
2013-05-02 23:02:00,45.6,20.2,30.38,West,275,0.0,1.0,36,0.00,,,0.00,HR-IXPWINDi_r2_v1.2.,2013-05-03 05:02:00,
2013-05-02 23:07:00,45.1,20.4,30.38,NW,311,0.0,1.0,37,0.00,,,0.00,HR-IXPWINDi_r2_v1.2.,2013-05-03 05:07:00,
2013-05-02 23:12:00,44.7,20.0,30.38,NW,310,1.0,1.0,37,0.00,,,0.00,HR-IXPWINDi_r2_v1.2.,2013-05-03 05:12:00,
2013-05-02 23:17:00,44.5,19.2,30.38,NW,312,1.0,1.0,36,0.00,,,0.00,HR-IXPWINDi_r2_v1.2.,2013-05-03 05:17:00,
2013-05-02 23:22:00,44.1,20.1,30.37,North,354,0.0,1.0,38,0.00,,,0.00,HR-IXPWINDi_r2_v1.2.,2013-05-03 05:22:00,
2013-05-02 23:28:00,43.6,20.9,30.37,North,354,0.0,1.0,40,0.00,,,0.00,HR-IXPWINDi_r2_v1.2.,2013-05-03 05:28:00,
2013-05-02 23:33:00,43.2,21.1,30.37,NW,325,0.0,1.0,41,0.00,,,0.00,HR-IXPWINDi_r2_v1.2.,2013-05-03 05:33:00,
2013-05-02 23:38:00,42.9,20.8,30.37,WNW,287,1.0,2.0,41,0.00,,,0.00,HR-IXPWINDi_r2_v1.2.,2013-05-03 05:38:00,
2013-05-02 23:43:00,42.9,19.0,30.37,NW,306,2.0,4.0,38,0.00,,,0.00,HR-IXPWINDi_r2_v1.2.,2013-05-03 05:43:00,
2013-05-02 23:48:00,42.9,18.4,30.37,NW,305,0.0,4.0,37,0.00,,,0.00,HR-IXPWINDi_r2_v1.2.,2013-05-03 05:48:00,
2013-05-02 23:53:00,42.7,19.5,30.37,SSW,201,1.0,3.0,39,0.00,,,0.00,HR-IXPWINDi_r2_v1.2.,2013-05-03 05:53:00,
2013-05-02 23:59:00,42.5,18.1,30.37,SSW,200,0.0,1.0,37,0.00,,,0.00,HR-IXPWINDi_r2_v1.2.,2013-05-03 05:59:00,